Latest Weather Observations for Macquarie Island

IDT60801

Issued at 4:35 pm EST Tuesday 29 July 2014 (issued every 30 minutes, with the page automatically refreshed every 10 minutes)

About weather observations | Map of weather stations | Latest weather observations for TAS | Other Formats
Station Details ID: 300004 Name: MACQUARIE ISLAND Lat: -54.50 Lon: 158.94 Height: 6.0 m
Data from the previous 72 hours. | See also: Recent months at Macquarie Island
Date/Time
EST
Temp
°C
App
Temp
°C
Dew
Point
Rel
Hum
%
Delta-T
°C
Wind Press
QNH
hPa
Press
MSL
hPa
Rain
since 9 am
mm
Dir
 
Spd
km/h
Gust
km/h
Spd
kts
Gust
kts
29/04:30pm 5.1 -2.5 2.6 84 1.0 NNW 32 37 17 20 976.4 - 0.8
29/04:00pm 5.3 -3.7 2.5 82 1.2 NW 39 46 21 25 976.3 - 0.8
29/03:30pm 5.2 -3.3 3.2 87 0.8 N 37 41 20 22 976.6 - 0.8
29/03:23pm 5.3 -3.2 3.2 86 0.9 N 37 41 20 22 976.6 - 0.8
29/03:00pm 5.6 -4.3 2.9 83 1.1 NW 44 57 24 31 976.4 976.7 0.8
29/02:30pm 5.6 -4.0 3.4 86 0.9 NNW 43 50 23 27 976.2 - 0.8
29/02:00pm 5.5 -3.1 2.8 83 1.1 NNW 37 46 20 25 976.1 - 0.8
29/01:42pm 5.8 -3.9 2.6 80 1.3 NW 43 63 23 34 975.7 - 0.8
29/01:30pm 5.6 -3.2 3.4 86 0.9 NNW 39 50 21 27 975.7 - 0.8
29/01:00pm 5.7 -3.5 3.5 86 0.9 NNW 41 56 22 30 975.4 - 0.8
29/12:30pm 6.0 -5.1 4.5 90 0.6 NNW 52 67 28 36 975.1 - 0.8
29/12:00pm 6.0 -4.4 4.3 89 0.7 NNW 48 56 26 30 975.2 975.5 0.8
29/11:30am 5.7 -5.0 4.5 92 0.5 NNW 50 57 27 31 975.5 - 0.8
29/11:00am 6.1 -7.4 4.7 91 0.6 NNW 65 83 35 45 975.1 - 0.8
29/10:59am 6.3 -7.2 4.9 91 0.6 NNW 65 83 35 45 974.9 - 0.8
29/10:30am 6.4 -7.5 5.0 91 0.6 N 67 83 36 45 975.0 - 0.8
29/10:15am 6.4 -5.8 5.7 95 0.3 N 59 80 32 43 975.4 - 0.6
29/10:00am 6.2 -5.1 5.5 95 0.3 N 54 70 29 38 976.2 - 0.2
29/09:30am 6.2 -3.6 5.3 94 0.4 N 46 56 25 30 976.9 - 0.0
29/09:00am 6.2 -3.1 5.2 93 0.4 N 43 54 23 29 977.6 977.9 1.8
29/08:30am 6.0 -2.5 5.1 94 0.4 N 39 48 21 26 978.6 - 1.8
29/08:00am 5.8 -2.8 4.9 94 0.4 N 39 48 21 26 979.3 - 1.8
29/07:30am 5.7 -2.5 4.7 93 0.4 N 37 43 20 23 979.7 - 1.8
29/07:00am 5.9 -3.0 4.9 93 0.4 N 41 46 22 25 980.2 - 1.8
29/06:30am 5.6 -3.8 4.7 94 0.4 NNW 43 48 23 26 980.9 - 1.8
29/06:00am 5.6 -3.4 4.7 94 0.4 NNW 41 48 22 26 981.5 981.8 1.8
29/05:30am 5.6 -3.4 4.7 94 0.4 NNW 41 48 22 26 981.7 - 1.8
29/05:00am 5.4 -3.2 4.7 95 0.3 NNW 39 43 21 23 982.0 - 1.8
29/04:30am 5.4 -2.5 4.5 94 0.4 NNW 35 39 19 21 982.1 - 1.8
29/04:00am 5.4 -2.8 4.5 94 0.4 NNW 37 44 20 24 982.4 - 1.8
29/03:30am 5.6 -3.8 4.7 94 0.4 NNW 43 48 23 26 982.5 - 1.8
29/03:00am 5.6 -3.9 4.7 94 0.4 NNW 44 50 24 27 982.7 983.0 1.8
29/02:30am 5.7 -4.6 4.5 92 0.5 NNW 48 56 26 30 982.8 - 1.8
29/02:00am 6.0 -4.7 4.8 92 0.5 NNW 50 59 27 32 982.8 - 1.8
29/01:30am 6.0 -4.6 5.0 93 0.4 NNW 50 59 27 32 983.2 - 1.8
29/01:00am 5.9 -4.3 5.0 94 0.4 NNW 48 56 26 30 983.4 - 1.8
29/12:30am 5.8 -4.5 4.8 93 0.4 NNW 48 54 26 29 983.7 - 1.8
29/12:00am 5.8 -3.7 4.8 93 0.4 NNW 44 50 24 27 984.0 984.3 1.8
 
Date/Time
EST
Temp
°C
App
Temp
°C
Dew
Point
Rel
Hum
%
Delta-T
°C
Wind Press
QNH
hPa
Press
MSL
hPa
Rain
since 9 am
mm
Dir
 
Spd
km/h
Gust
km/h
Spd
kts
Gust
kts
28/11:30pm 5.7 -3.8 4.7 93 0.4 NNW 44 52 24 28 984.5 - 1.8
28/11:00pm 5.7 -3.8 4.7 93 0.4 NNW 44 50 24 27 984.7 - 1.8
28/10:30pm 5.7 -3.6 4.8 94 0.4 NNW 43 48 23 26 985.0 - 1.8
28/10:00pm 5.9 -4.0 5.0 94 0.4 NNW 46 52 25 28 985.1 - 1.8
28/09:30pm 6.0 -4.2 5.1 94 0.4 NNW 48 54 26 29 985.2 - 1.8
28/09:00pm 6.2 -4.0 5.3 94 0.4 NNW 48 59 26 32 985.3 985.6 1.8
28/08:30pm 6.2 -4.0 5.3 94 0.4 NNW 48 54 26 29 985.3 - 1.8
28/08:00pm 6.2 -3.6 5.5 95 0.3 NNW 46 56 25 30 985.5 - 1.8
28/07:30pm 6.2 -4.7 5.6 96 0.3 NNW 52 63 28 34 985.6 - 1.8
28/07:00pm 6.2 -3.5 5.8 97 0.2 N 46 54 25 29 985.8 - 1.8
28/06:30pm 6.0 -3.2 5.6 97 0.2 N 43 48 23 26 986.5 - 1.0
28/06:00pm 6.1 -3.2 5.7 97 0.2 N 44 50 24 27 987.1 987.4 0.6
28/05:30pm 5.8 -2.6 5.4 97 0.2 N 39 46 21 25 987.8 - 0.6
28/05:00pm 5.8 -2.6 5.4 97 0.2 N 39 44 21 24 988.5 - 0.4
28/04:30pm 5.9 -2.5 5.5 97 0.2 NNW 39 44 21 24 989.2 - 0.0
28/04:00pm 5.8 -2.7 5.2 96 0.3 N 39 44 21 24 989.6 - 0.0
28/03:30pm 5.9 -2.6 5.2 95 0.3 N 39 43 21 23 990.2 - 0.0
28/03:00pm 5.6 -1.9 4.7 94 0.4 NNW 33 37 18 20 990.9 991.2 0.0
28/02:30pm 5.8 -2.4 4.8 93 0.4 NNW 37 41 20 22 991.1 - 0.0
28/02:00pm 6.0 -2.1 5.1 94 0.4 NNW 37 39 20 21 991.6 - 0.0
28/01:30pm 6.1 -2.3 5.4 95 0.3 NNW 39 44 21 24 992.0 - 0.0
28/01:00pm 5.8 -0.2 5.1 95 0.3 NW 26 32 14 17 992.7 - 0.0
28/12:30pm 5.8 -2.0 4.9 94 0.4 NNW 35 39 19 21 993.2 - 0.0
28/12:00pm 6.0 -2.1 5.1 94 0.4 NNW 37 43 20 23 993.6 993.9 0.0
28/11:30am 6.2 -2.7 5.2 93 0.4 NNW 41 46 22 25 993.8 - 0.0
28/11:00am 6.2 -3.2 5.2 93 0.4 NNW 44 50 24 27 994.1 - 0.0
28/10:30am 6.3 -3.2 5.1 92 0.5 NNW 44 50 24 27 994.4 - 0.0
28/10:00am 6.2 -3.6 5.2 93 0.4 NNW 46 54 25 29 994.7 - 0.0
28/09:30am 6.5 -3.6 5.6 94 0.4 NNW 48 57 26 31 994.8 - 0.0
28/09:00am 6.6 -4.6 5.7 94 0.4 NNW 54 65 29 35 994.7 995.0 0.4
28/08:30am 6.5 -4.0 5.6 94 0.4 NNW 50 59 27 32 994.8 - 0.4
28/08:00am 6.5 -4.7 5.8 95 0.3 NNW 54 61 29 33 994.8 - 0.4
28/07:30am 6.4 -5.8 5.7 95 0.3 NNW 59 76 32 41 994.7 - 0.4
28/07:00am 6.5 -6.1 5.6 94 0.4 NNW 61 74 33 40 994.6 - 0.2
28/06:30am 6.5 -5.7 5.6 94 0.4 NNW 59 70 32 38 994.9 - 0.2
28/06:00am 6.3 -5.9 5.4 94 0.4 NNW 59 74 32 40 995.3 995.6 0.2
28/05:30am 6.1 -5.8 5.2 94 0.4 N 57 69 31 37 995.9 - 0.0
28/05:00am 6.1 -7.0 5.2 94 0.4 N 63 74 34 40 996.4 - 0.0
28/04:44am 6.0 -6.3 5.0 93 0.4 N 59 78 32 42 996.7 - 0.0
28/04:30am 6.0 -7.1 5.0 93 0.4 N 63 74 34 40 996.9 - 0.0
28/04:00am 6.1 -7.4 4.7 91 0.6 N 65 74 35 40 997.6 - 0.0
28/03:30am 6.2 -6.6 4.7 90 0.6 N 61 76 33 41 998.3 - 0.0
28/03:00am 6.2 -5.8 4.5 89 0.7 N 57 70 31 38 999.1 999.4 0.0
28/02:30am 6.2 -5.9 4.4 88 0.8 NNW 57 70 31 38 1000.2 - 0.0
28/02:00am 6.0 -5.1 4.3 89 0.7 NNW 52 65 28 35 1001.1 - 0.0
28/01:30am 6.0 -5.8 4.6 91 0.6 NNW 56 63 30 34 1001.8 - 0.0
28/01:00am 5.7 -6.1 4.7 93 0.4 N 56 67 30 36 1002.3 - 0.0
28/12:30am 5.8 -6.6 4.8 93 0.4 N 59 69 32 37 1002.6 - 0.0
28/12:00am 5.7 -5.7 4.8 94 0.4 N 54 63 29 34 1003.4 1003.7 0.0
 
Date/Time
EST
Temp
°C
App
Temp
°C
Dew
Point
Rel
Hum
%
Delta-T
°C
Wind Press
QNH
hPa
Press
MSL
hPa
Rain
since 9 am
mm
Dir
 
Spd
km/h
Gust
km/h
Spd
kts
Gust
kts
27/11:30pm 5.6 -4.7 4.9 95 0.3 NNW 48 56 26 30 1004.4 - 0.0
27/11:00pm 5.6 -5.0 4.9 95 0.3 NNW 50 57 27 31 1005.2 - 0.0
27/10:30pm 5.7 -5.4 4.7 93 0.4 NNW 52 59 28 32 1005.5 - 0.0
27/10:00pm 5.8 -5.3 4.6 92 0.5 NNW 52 59 28 32 1006.0 - 0.0
27/09:30pm 5.6 -4.3 4.6 93 0.4 NNW 46 54 25 29 1006.4 - 0.0
27/09:00pm 5.8 -4.5 4.8 93 0.4 NNW 48 56 26 30 1006.8 1007.1 0.0
27/08:30pm 5.9 -4.0 4.7 92 0.5 NNW 46 57 25 31 1007.3 - 0.0
27/08:00pm 6.0 -5.2 4.2 88 0.8 NNW 52 59 28 32 1007.9 - 0.0
27/07:30pm 5.9 -5.3 4.1 88 0.8 NNW 52 65 28 35 1008.1 - 0.0
27/07:26pm 5.9 -5.7 4.1 88 0.8 NNW 54 72 29 39 1008.2 - 0.0
27/07:00pm 6.0 -4.8 4.3 89 0.7 NNW 50 63 27 34 1008.4 - 0.0
27/06:30pm 6.0 -4.8 4.3 89 0.7 NNW 50 61 27 33 1008.8 - 0.0
27/06:00pm 6.0 -4.3 4.5 90 0.6 NNW 48 59 26 32 1009.0 1009.3 0.0
27/05:30pm 5.8 -3.2 4.8 93 0.4 NNW 41 52 22 28 1009.8 - 0.0
27/05:00pm 5.8 -4.5 4.9 94 0.4 NNW 48 59 26 32 1010.1 - 0.0
27/04:30pm 5.9 -3.5 4.7 92 0.5 NNW 43 50 23 27 1010.3 - 0.0
27/04:00pm 5.9 -2.7 4.5 91 0.6 NNW 39 46 21 25 1010.5 - 0.0
27/03:30pm 6.1 -3.3 4.7 91 0.6 NNW 43 48 23 26 1010.8 - 0.0
27/03:00pm 5.8 -3.1 4.9 94 0.4 NNW 41 44 22 24 1011.1 1011.4 0.0
27/02:30pm 5.5 -3.1 4.8 95 0.3 NNW 39 46 21 25 1011.3 - 0.0
27/02:00pm 5.8 -3.7 4.9 94 0.4 NNW 44 52 24 28 1011.5 - 0.0
27/01:30pm 6.2 -2.7 5.2 93 0.4 NNW 41 48 22 26 1011.7 - 0.0
27/01:00pm 6.0 -2.9 5.1 94 0.4 NNW 41 46 22 25 1012.1 - 0.0
27/12:30pm 5.9 -2.2 5.2 95 0.3 NNW 37 43 20 23 1012.5 - 0.0
27/12:00pm 6.0 -2.4 5.4 96 0.3 NNW 39 46 21 25 1012.7 1013.0 0.0
27/11:30am 6.0 -2.4 5.4 96 0.3 NNW 39 46 21 25 1013.0 - 0.0
27/11:00am 5.8 -1.9 5.2 96 0.3 NNW 35 43 19 23 1013.5 - 0.0
27/10:30am 5.8 -1.4 4.9 94 0.4 NNW 32 39 17 21 1014.0 - 0.0
27/10:00am 5.7 0.0 4.8 94 0.4 NNW 24 30 13 16 1014.5 - 0.0
27/09:30am 5.7 -1.5 4.8 94 0.4 NW 32 35 17 19 1014.7 - 0.0
27/09:00am 5.8 -1.4 4.9 94 0.4 NW 32 43 17 23 1014.9 1015.2 0.0
27/08:30am 5.8 -1.4 4.9 94 0.4 NW 32 39 17 21 1015.0 - 0.0
27/08:00am 5.7 -2.1 4.8 94 0.4 NNW 35 43 19 23 1014.9 - 0.0
27/07:30am 5.7 -1.6 4.7 93 0.4 NNW 32 39 17 21 1015.2 - 0.0
27/07:00am 5.7 -1.6 4.7 93 0.4 NNW 32 39 17 21 1015.2 - 0.0
27/06:30am 5.7 -2.2 4.5 92 0.5 NNW 35 39 19 21 1015.0 - 0.0
27/06:00am 5.6 -1.8 4.2 91 0.6 NNW 32 35 17 19 1015.0 1015.3 0.0
27/05:30am 5.5 -2.0 4.3 92 0.5 NNW 33 39 18 21 1014.6 - 0.0
27/05:00am 5.5 -2.4 4.2 91 0.6 NNW 35 39 19 21 1014.7 - 0.0
27/04:30am 5.5 -2.4 4.2 91 0.6 NNW 35 39 19 21 1015.0 - 0.0
27/04:00am 5.5 -2.4 4.3 92 0.5 NNW 35 39 19 21 1015.2 - 0.0
27/03:30am 5.4 -2.5 4.2 92 0.5 NNW 35 39 19 21 1015.2 - 0.0
27/03:00am 5.4 -2.9 4.2 92 0.5 NNW 37 43 20 23 1015.2 1015.5 0.0
27/02:30am 5.5 -3.5 4.3 92 0.5 NNW 41 44 22 24 1015.3 - 0.0
27/02:00am 5.5 -2.8 4.3 92 0.5 NNW 37 43 20 23 1015.5 - 0.0
27/01:30am 5.3 -2.6 4.4 94 0.4 NNW 35 41 19 22 1015.6 - 0.0
27/01:00am 5.3 -2.6 4.4 94 0.4 NNW 35 39 19 21 1015.7 - 0.0
27/12:30am 5.3 -2.9 4.6 95 0.3 NNW 37 41 20 22 1015.8 - 0.0
27/12:00am 5.3 -2.6 4.4 94 0.4 NNW 35 39 19 21 1015.9 1016.2 0.0
 
Date/Time
EST
Temp
°C
App
Temp
°C
Dew
Point
Rel
Hum
%
Delta-T
°C
Wind Press
QNH
hPa
Press
MSL
hPa
Rain
since 9 am
mm
Dir
 
Spd
km/h
Gust
km/h
Spd
kts
Gust
kts
26/11:30pm 5.3 -2.6 4.4 94 0.4 NNW 35 39 19 21 1015.9 - 0.0
26/11:00pm 5.3 -2.2 4.3 93 0.4 NNW 33 37 18 20 1016.2 - 0.0
26/10:30pm 5.2 -1.4 4.0 92 0.5 NW 28 35 15 19 1016.3 - 0.0
26/10:00pm 5.2 -2.2 4.2 93 0.4 NNW 32 39 17 21 1016.2 - 0.0
26/09:30pm 5.3 -2.1 4.1 92 0.5 NW 32 41 17 22 1016.3 - 0.0
26/09:00pm 5.3 -3.4 4.3 93 0.4 NNW 39 44 21 24 1016.1 1016.4 0.0
26/08:30pm 5.1 -1.9 4.2 94 0.4 NW 30 33 16 18 1016.1 - 0.0
26/08:00pm 5.2 -2.3 4.3 94 0.4 NW 33 39 18 21 1015.9 - 0.0
26/07:30pm 4.9 -2.6 4.2 95 0.3 NW 33 41 18 22 1015.7 - 0.0
26/07:00pm 5.0 -2.3 4.3 95 0.3 WNW 32 39 17 21 1015.8 - 0.0
26/06:30pm 5.1 -2.2 4.4 95 0.3 WNW 32 39 17 21 1015.7 - 0.0
26/06:00pm 5.2 -2.7 4.5 95 0.3 WNW 35 43 19 23 1015.6 1015.9 0.0
26/05:30pm 5.3 -2.2 4.4 94 0.4 WNW 33 39 18 21 1015.5 - 0.0
26/05:00pm 5.4 -1.9 4.4 93 0.4 WNW 32 35 17 19 1015.5 - 0.0

Other Formats:

Comma delimited format used in spreadsheet applications
http://www.bom.gov.au/fwo/IDT60801/IDT60801.94998.axf

JavaScript Object Notation format (JSON) in row-major order
http://www.bom.gov.au/fwo/IDT60801/IDT60801.94998.json